createdAt,value
2019-04-20T00:00:59.865Z,70.40
2019-04-20T00:03:36.818Z,71.00
2019-04-20T00:06:03.535Z,70.60
2019-04-20T00:08:37.475Z,71.90
2019-04-20T00:11:15.662Z,72.70
2019-04-20T00:13:48.756Z,72.80
2019-04-20T00:16:10.600Z,72.90
2019-04-20T00:18:46.596Z,73.30
2019-04-20T00:21:30.982Z,73.80
2019-04-20T00:24:11.451Z,73.30
2019-04-20T00:27:08.472Z,74.00
2019-04-20T00:29:30.879Z,74.50
2019-04-20T00:31:55.556Z,75.10
2019-04-20T00:34:23.046Z,74.20
2019-04-20T00:36:47.430Z,73.80
2019-04-20T00:39:19.916Z,73.90
2019-04-20T00:41:57.137Z,75.10
2019-04-20T00:44:28.712Z,76.40
2019-04-20T00:47:08.492Z,77.60
2019-04-20T00:49:38.866Z,78.30
2019-04-20T00:52:23.731Z,78.80
2019-04-20T00:54:30.966Z,79.00
2019-04-20T00:57:13.461Z,80.30
2019-04-20T00:59:55.229Z,80.70
2019-04-20T01:02:20.872Z,80.20
2019-04-20T01:04:58.312Z,80.20
2019-04-20T01:07:32.089Z,79.70
2019-04-20T01:10:10.933Z,80.30
2019-04-20T01:12:42.800Z,80.90
2019-04-20T01:15:25.652Z,80.00
2019-04-20T01:17:47.234Z,79.60
2019-04-20T01:20:17.713Z,79.40
2019-04-20T01:22:54.659Z,80.00
2019-04-20T01:25:28.493Z,80.70
2019-04-20T01:28:07.783Z,80.70
2019-04-20T01:30:32.274Z,82.30
2019-04-20T01:33:12.779Z,83.50
2019-04-20T01:35:44.164Z,83.70
2019-04-20T01:38:22.481Z,84.10
2019-04-20T01:40:33.762Z,85.00
2019-04-20T01:43:05.572Z,84.80
2019-04-20T01:45:40.608Z,85.40
2019-04-20T01:48:09.873Z,84.70
2019-04-20T01:50:49.987Z,85.30
2019-04-20T01:53:29.213Z,85.60
2019-04-20T01:56:05.378Z,86.10
2019-04-20T01:58:47.477Z,88.00
2019-04-20T02:01:27.488Z,89.00
2019-04-20T02:04:06.795Z,89.40
2019-04-20T02:06:44.400Z,89.70
2019-04-20T02:09:15.244Z,90.30
2019-04-20T02:11:45.161Z,90.10
2019-04-20T02:14:23.366Z,91.10
2019-04-20T02:16:51.724Z,90.60
2019-04-20T02:19:30.359Z,90.90
2019-04-20T02:22:03.565Z,91.40
2019-04-20T02:24:23.833Z,91.90
2019-04-20T02:26:55.631Z,91.80
2019-04-20T02:30:04.474Z,91.70
2019-04-20T02:32:26.562Z,92.10
2019-04-20T02:35:07.686Z,92.50
2019-04-20T02:38:01.264Z,92.10
2019-04-20T02:42:59.934Z,92.70
2019-04-20T02:45:38.729Z,92.60
2019-04-20T02:48:05.579Z,93.30
2019-04-20T02:50:34.377Z,93.30
2019-04-20T02:53:05.260Z,93.10
2019-04-20T02:55:31.394Z,93.50
2019-04-20T02:58:00.527Z,93.50
2019-04-20T03:00:31.360Z,93.10
2019-04-20T03:02:52.791Z,93.10
2019-04-20T03:05:23.675Z,93.70
2019-04-20T03:08:05.692Z,93.90
2019-04-20T03:10:43.596Z,94.50
2019-04-20T03:13:12.727Z,94.50
2019-04-20T03:15:44.521Z,94.50
2019-04-20T03:18:17.623Z,94.70
2019-04-20T03:20:46.538Z,94.80
2019-04-20T03:26:09.471Z,95.00
2019-04-20T03:29:01.082Z,94.90
2019-04-20T03:32:03.639Z,95.20
2019-04-20T03:34:51.472Z,95.40
2019-04-20T03:36:55.081Z,95.60
2019-04-20T03:39:19.065Z,95.60
2019-04-20T03:41:36.667Z,95.90
2019-04-20T03:44:09.878Z,95.80
2019-04-20T03:46:44.878Z,96.30
2019-04-20T03:49:27.531Z,95.80
2019-04-20T03:52:02.638Z,95.90
2019-04-20T03:54:33.263Z,96.00
2019-04-20T03:57:34.458Z,96.40
2019-04-20T04:00:24.901Z,96.80
2019-04-20T04:03:45.930Z,96.40
2019-04-20T04:05:50.937Z,95.90
2019-04-20T04:08:19.405Z,96.50
2019-04-20T04:11:02.412Z,96.50
2019-04-20T04:13:18.727Z,96.40
2019-04-20T04:15:55.602Z,97.10
2019-04-20T04:18:29.879Z,96.60
2019-04-20T04:21:01.984Z,97.00
2019-04-20T04:23:44.897Z,97.20
2019-04-20T04:26:17.569Z,97.30
2019-04-20T04:28:51.612Z,97.10
2019-04-20T04:31:23.271Z,97.50
2019-04-20T04:36:21.081Z,97.60
2019-04-20T04:39:05.500Z,97.70
2019-04-20T04:41:35.498Z,97.60
2019-04-20T04:44:05.551Z,97.90
2019-04-20T04:46:16.527Z,98.20
2019-04-20T04:48:49.859Z,98.00
2019-04-20T04:51:25.687Z,98.20
2019-04-20T04:53:59.874Z,98.30
2019-04-20T04:56:26.428Z,98.50
2019-04-20T04:58:56.212Z,98.30
2019-04-20T05:01:30.751Z,98.80
2019-04-20T05:04:22.973Z,98.70
2019-04-20T05:06:45.518Z,98.80
2019-04-20T05:09:08.063Z,99.00
2019-04-20T05:11:36.681Z,98.80
2019-04-20T05:14:10.630Z,98.70
2019-04-20T05:16:55.581Z,99.00
2019-04-20T05:19:29.789Z,99.30
2019-04-20T05:22:09.727Z,99.70
2019-04-20T05:24:53.543Z,99.90
2019-04-20T05:27:36.105Z,99.90
2019-04-20T05:29:46.737Z,99.90
2019-04-20T05:32:31.377Z,99.90
2019-04-20T05:35:12.184Z,99.70
2019-04-20T05:37:48.784Z,99.30
2019-04-20T05:40:20.626Z,99.20
2019-04-20T05:43:07.876Z,98.80
2019-04-20T05:45:35.364Z,98.70
2019-04-20T05:48:08.998Z,98.00
2019-04-20T05:50:42.239Z,98.00
2019-04-20T05:53:22.035Z,97.30
2019-04-20T05:55:51.568Z,97.80
2019-04-20T05:58:21.840Z,97.80
2019-04-20T06:00:55.036Z,97.70
2019-04-20T06:03:20.256Z,97.90
2019-04-20T06:06:03.214Z,97.80
2019-04-20T06:08:41.700Z,97.40
2019-04-20T06:11:02.563Z,97.20
2019-04-20T06:13:38.964Z,96.90
2019-04-20T06:16:31.056Z,96.90
2019-04-20T06:19:18.229Z,97.20
2019-04-20T06:21:44.252Z,96.90
2019-04-20T06:24:26.528Z,97.10
2019-04-20T06:27:12.771Z,96.20
2019-04-20T06:29:21.941Z,94.80
2019-04-20T06:32:06.918Z,94.50
2019-04-20T06:34:46.592Z,94.10
2019-04-20T06:39:44.685Z,94.50
2019-04-20T06:44:39.269Z,93.70
2019-04-20T06:47:15.775Z,93.50
2019-04-20T06:49:48.687Z,92.10
2019-04-20T06:52:27.460Z,92.70
2019-04-20T06:55:05.169Z,92.30
2019-04-20T06:57:40.764Z,91.50
2019-04-20T07:00:15.812Z,91.30
2019-04-20T07:05:18.883Z,89.50
2019-04-20T07:07:53.405Z,90.60
2019-04-20T07:10:39.505Z,90.00
2019-04-20T07:12:49.327Z,90.40
2019-04-20T07:15:22.622Z,89.30
2019-04-20T07:18:06.455Z,87.60
2019-04-20T07:20:51.636Z,87.50
2019-04-20T07:23:23.757Z,85.50
2019-04-20T07:25:47.871Z,87.10
2019-04-20T07:28:19.599Z,83.90
2019-04-20T07:30:50.282Z,80.90
2019-04-20T07:33:26.973Z,81.10
2019-04-20T07:35:52.395Z,79.50
2019-04-20T07:40:56.156Z,78.50
2019-04-20T07:43:33.364Z,77.50
2019-04-20T07:46:34.866Z,75.60
2019-04-20T07:48:30.842Z,75.80
2019-04-20T07:50:58.174Z,76.60
2019-04-20T07:53:33.163Z,75.20
2019-04-20T07:56:13.129Z,76.30
2019-04-20T07:58:33.698Z,76.50
2019-04-20T08:01:38.888Z,76.50
2019-04-20T08:04:07.851Z,75.30
2019-04-20T08:06:33.094Z,75.40
2019-04-20T08:09:08.656Z,74.80
2019-04-20T08:11:48.754Z,74.50
2019-04-20T08:14:27.108Z,74.10
2019-04-20T08:19:23.018Z,70.90
2019-04-20T08:21:58.805Z,73.70
2019-04-20T08:24:27.705Z,74.20
2019-04-20T08:26:51.879Z,71.80
2019-04-20T08:29:41.462Z,72.10
2019-04-20T08:32:18.861Z,70.50
2019-04-20T08:34:53.783Z,71.50
2019-04-20T08:37:20.721Z,69.10
2019-04-20T08:40:02.958Z,69.50
2019-04-20T08:42:33.259Z,68.70
2019-04-20T08:45:04.016Z,68.80
2019-04-20T08:47:51.820Z,72.30
2019-04-20T08:50:20.849Z,70.80
2019-04-20T08:55:19.568Z,68.50
2019-04-20T08:57:35.577Z,66.20
2019-04-20T09:00:11.148Z,67.50
2019-04-20T09:02:51.969Z,65.10
2019-04-20T09:05:32.978Z,65.40
2019-04-20T09:07:58.877Z,64.80
2019-04-20T09:10:43.932Z,62.70
2019-04-20T09:13:05.416Z,66.60
2019-04-20T09:15:25.317Z,66.60
2019-04-20T09:18:09.346Z,66.20
2019-04-20T09:20:44.568Z,65.90
2019-04-20T09:23:28.676Z,63.50
2019-04-20T09:26:02.454Z,62.30
2019-04-20T09:28:54.318Z,63.90
2019-04-20T09:31:25.602Z,60.70
2019-04-20T09:34:20.537Z,60.10
2019-04-20T09:37:36.931Z,59.90
2019-04-20T09:40:06.062Z,61.00
2019-04-20T09:42:32.394Z,60.60
2019-04-20T09:45:05.827Z,59.70
2019-04-20T09:47:41.975Z,59.00
2019-04-20T09:50:25.060Z,55.70
2019-04-20T09:53:01.493Z,56.60
2019-04-20T09:55:24.650Z,56.00
2019-04-20T09:58:02.731Z,56.30
2019-04-20T10:00:37.362Z,55.10
2019-04-20T10:02:50.588Z,54.80
2019-04-20T10:05:21.031Z,53.10
2019-04-20T10:07:56.960Z,53.20
2019-04-20T10:10:31.580Z,52.10
2019-04-20T10:12:56.348Z,50.80
2019-04-20T10:15:29.555Z,51.60
2019-04-20T10:17:59.591Z,52.20
2019-04-20T10:20:33.481Z,51.40
2019-04-20T10:23:02.686Z,53.10
2019-04-20T10:25:33.243Z,50.50
2019-04-20T10:28:03.668Z,49.40
2019-04-20T10:30:34.689Z,49.30
2019-04-20T10:33:05.791Z,50.10
2019-04-20T10:35:36.399Z,49.30
2019-04-20T10:38:11.829Z,48.50
2019-04-20T10:40:52.998Z,48.20
2019-04-20T10:43:14.372Z,45.80
2019-04-20T10:45:44.911Z,48.20
2019-04-20T10:48:15.347Z,49.90
2019-04-20T10:50:45.702Z,48.50
2019-04-20T10:53:17.681Z,48.10
2019-04-20T10:55:49.347Z,47.70
2019-04-20T10:58:19.817Z,50.10
2019-04-20T11:00:51.863Z,50.20
2019-04-20T11:03:22.817Z,49.40
2019-04-20T11:05:53.267Z,48.60
2019-04-20T11:08:24.467Z,49.80
2019-04-20T11:11:05.132Z,50.30
2019-04-20T11:13:27.687Z,44.80
2019-04-20T11:15:58.196Z,46.80
2019-04-20T11:18:29.316Z,47.30
2019-04-20T11:20:59.850Z,48.20
2019-04-20T11:23:30.216Z,46.30
2019-04-20T11:26:00.650Z,45.40
2019-04-20T11:28:32.270Z,45.10
2019-04-20T11:31:04.044Z,43.80
2019-04-20T11:33:34.594Z,44.60
2019-04-20T11:36:05.309Z,44.80
2019-04-20T11:38:35.793Z,43.70
2019-04-20T11:41:13.471Z,43.10
2019-04-20T11:43:39.852Z,43.40
2019-04-20T11:46:10.380Z,43.10
2019-04-20T11:48:41.407Z,42.30
2019-04-20T11:51:11.926Z,42.30
2019-04-20T11:53:42.691Z,43.40
2019-04-20T11:56:19.220Z,41.40
2019-04-20T11:58:45.370Z,39.70
2019-04-20T12:01:47.956Z,40.10
2019-04-20T12:04:25.232Z,40.80
2019-04-20T12:06:44.175Z,38.30
2019-04-20T12:09:14.924Z,38.40
2019-04-20T12:11:59.604Z,38.40
2019-04-20T12:14:18.808Z,38.10
2019-04-20T12:16:49.929Z,38.70
2019-04-20T12:19:20.755Z,37.50
2019-04-20T12:21:51.689Z,37.80
2019-04-20T12:24:22.653Z,37.90
2019-04-20T12:26:54.355Z,37.50
2019-04-20T12:29:25.827Z,36.50
2019-04-20T12:31:59.096Z,36.70
2019-04-20T12:34:28.726Z,37.10
2019-04-20T12:36:59.207Z,38.10
2019-04-20T12:39:31.115Z,36.90
2019-04-20T12:42:04.772Z,35.90
2019-04-20T12:44:37.827Z,36.60
2019-04-20T12:45:49.756Z,56.80
2019-04-20T12:47:08.306Z,34.40
2019-04-20T12:48:19.724Z,56.50
2019-04-20T12:49:38.803Z,34.80
2019-04-20T12:50:49.934Z,56.50
2019-04-20T12:52:10.253Z,35.60
2019-04-20T12:53:20.338Z,56.40
2019-04-20T12:54:42.947Z,35.90
2019-04-20T12:55:50.745Z,56.30
2019-04-20T12:57:14.407Z,37.90
2019-04-20T12:58:20.897Z,56.30
2019-04-20T12:59:47.180Z,34.80
2019-04-20T13:00:50.891Z,56.20
2019-04-20T13:02:17.583Z,35.70
2019-04-20T13:03:21.440Z,56.20
2019-04-20T13:04:49.125Z,36.30
2019-04-20T13:05:51.901Z,56.20
2019-04-20T13:07:19.713Z,34.80
2019-04-20T13:08:29.653Z,56.20
2019-04-20T13:09:54.683Z,34.90
2019-04-20T13:10:58.359Z,56.10
2019-04-20T13:12:47.382Z,35.90
2019-04-20T13:13:32.684Z,56.20
2019-04-20T13:15:54.208Z,36.90
2019-04-20T13:16:08.193Z,56.20
2019-04-20T13:18:47.650Z,36.00
2019-04-20T13:18:50.895Z,56.10
2019-04-20T13:21:19.022Z,35.20
2019-04-20T13:21:21.031Z,56.10
2019-04-20T13:23:51.022Z,35.50
2019-04-20T13:23:51.095Z,56.20
2019-04-20T13:26:20.306Z,56.20
2019-04-20T13:26:22.689Z,33.40
2019-04-20T13:28:50.582Z,56.20
2019-04-20T13:28:53.245Z,36.00
2019-04-20T13:31:21.863Z,56.10
2019-04-20T13:31:24.107Z,34.70
2019-04-20T13:33:51.596Z,56.20
2019-04-20T13:33:54.928Z,33.70
2019-04-20T13:36:22.048Z,56.20
2019-04-20T13:36:26.171Z,34.80
2019-04-20T13:38:52.240Z,56.10
2019-04-20T13:38:56.742Z,34.60
2019-04-20T13:41:22.041Z,56.20
2019-04-20T13:41:27.703Z,32.90
2019-04-20T13:43:51.158Z,56.10
2019-04-20T13:44:00.122Z,33.80
2019-04-20T13:46:20.847Z,56.20
2019-04-20T13:46:31.295Z,33.80
2019-04-20T13:48:51.062Z,56.80
2019-04-20T13:49:02.990Z,34.30
2019-04-20T13:51:21.020Z,56.20
2019-04-20T13:51:34.879Z,35.30
2019-04-20T13:53:51.014Z,56.20
2019-04-20T13:54:12.713Z,33.10
2019-04-20T13:56:21.762Z,56.20
2019-04-20T13:56:39.597Z,32.70
2019-04-20T13:59:10.052Z,56.30
2019-04-20T13:59:39.604Z,32.20
2019-04-20T14:01:57.140Z,56.30
2019-04-20T14:02:23.471Z,32.60
2019-04-20T14:04:28.599Z,56.30
2019-04-20T14:04:58.966Z,34.10
2019-04-20T14:06:57.655Z,56.20
2019-04-20T14:07:31.420Z,32.70
2019-04-20T14:09:27.578Z,56.20
2019-04-20T14:10:02.013Z,32.40
2019-04-20T14:12:00.873Z,56.20
2019-04-20T14:12:37.519Z,33.00
2019-04-20T14:14:28.855Z,56.30
2019-04-20T14:15:08.979Z,32.10
2019-04-20T14:16:59.040Z,56.20
2019-04-20T14:17:39.713Z,30.00
2019-04-20T14:19:29.211Z,56.20
2019-04-20T14:20:13.853Z,29.70
2019-04-20T14:21:59.542Z,56.30
2019-04-20T14:22:43.053Z,29.50
2019-04-20T14:24:29.122Z,56.40
2019-04-20T14:25:15.245Z,28.50
2019-04-20T14:26:58.988Z,56.30
2019-04-20T14:27:46.657Z,31.10
2019-04-20T14:29:28.074Z,56.40
2019-04-20T14:30:17.469Z,30.80
2019-04-20T14:32:00.089Z,56.50
2019-04-20T14:32:48.237Z,30.70
2019-04-20T14:34:28.939Z,56.50
2019-04-20T14:35:19.007Z,30.00
2019-04-20T14:37:00.114Z,56.50
2019-04-20T14:37:49.946Z,29.50
2019-04-20T14:39:30.240Z,56.50
2019-04-20T14:40:21.988Z,28.70
2019-04-20T14:42:00.425Z,56.60
2019-04-20T14:42:54.800Z,27.60
2019-04-20T14:44:29.911Z,56.70
2019-04-20T14:45:24.994Z,28.30
2019-04-20T14:47:00.080Z,56.70
2019-04-20T14:47:55.494Z,29.10
2019-04-20T14:49:30.503Z,56.80
2019-04-20T14:50:27.570Z,28.90
2019-04-20T14:52:01.153Z,56.80
2019-04-20T14:52:59.675Z,28.70
2019-04-20T14:54:31.694Z,56.80
2019-04-20T14:55:31.390Z,27.80
2019-04-20T14:57:01.389Z,56.90
2019-04-20T14:58:07.791Z,26.30
2019-04-20T14:59:45.316Z,56.90
2019-04-20T15:00:52.778Z,26.20
2019-04-20T15:02:17.377Z,56.90
2019-04-20T15:03:32.468Z,26.20
2019-04-20T15:04:47.332Z,56.90
2019-04-20T15:06:05.401Z,27.30
2019-04-20T15:07:16.592Z,57.00
2019-04-20T15:08:38.588Z,26.40
2019-04-20T15:09:46.765Z,57.10
2019-04-20T15:11:09.433Z,26.00
2019-04-20T15:12:16.971Z,57.00
2019-04-20T15:13:40.641Z,26.90
2019-04-20T15:14:46.828Z,57.00
2019-04-20T15:16:12.866Z,26.50
2019-04-20T15:17:21.801Z,57.10
2019-04-20T15:18:49.122Z,25.80
2019-04-20T15:19:53.782Z,57.10
2019-04-20T15:21:21.609Z,25.80
2019-04-20T15:22:49.672Z,57.10
2019-04-20T15:23:53.320Z,25.60
2019-04-20T15:25:19.140Z,57.10
2019-04-20T15:26:24.435Z,25.80
2019-04-20T15:27:48.286Z,57.10
2019-04-20T15:28:56.703Z,25.40
2019-04-20T15:30:18.346Z,57.20
2019-04-20T15:31:28.187Z,25.20
2019-04-20T15:32:47.505Z,57.20
2019-04-20T15:33:59.093Z,24.10
2019-04-20T15:35:19.125Z,57.10
2019-04-20T15:36:29.776Z,24.00
2019-04-20T15:37:47.288Z,57.10
2019-04-20T15:39:01.097Z,23.70
2019-04-20T15:40:17.274Z,57.10
2019-04-20T15:41:31.615Z,24.40
2019-04-20T15:42:56.642Z,57.10
2019-04-20T15:44:03.540Z,23.20
2019-04-20T15:45:18.930Z,57.20
2019-04-20T15:46:35.298Z,23.40
2019-04-20T15:47:48.397Z,57.20
2019-04-20T15:49:06.495Z,22.70
2019-04-20T15:50:18.032Z,57.30
2019-04-20T15:51:37.575Z,23.60
2019-04-20T15:52:50.982Z,57.20
2019-04-20T15:54:09.504Z,22.90
2019-04-20T15:55:24.589Z,57.00
2019-04-20T15:56:43.467Z,22.70
2019-04-20T15:57:48.605Z,56.90
2019-04-20T15:59:12.633Z,23.40
2019-04-20T16:00:18.396Z,56.80
2019-04-20T16:01:51.308Z,22.50
2019-04-20T16:02:59.121Z,56.70
2019-04-20T16:04:43.005Z,22.50
2019-04-20T16:05:43.182Z,56.70
2019-04-20T16:07:13.121Z,22.90
2019-04-20T16:08:28.190Z,56.70
2019-04-20T16:09:44.312Z,22.70
2019-04-20T16:10:59.234Z,56.70
2019-04-20T16:12:15.165Z,24.00
2019-04-20T16:13:35.818Z,56.60
2019-04-20T16:14:45.847Z,24.70
2019-04-20T16:15:59.082Z,56.70
2019-04-20T16:17:17.417Z,23.90
2019-04-20T16:18:28.110Z,56.70
2019-04-20T16:19:55.353Z,24.30
2019-04-20T16:21:05.448Z,56.70
2019-04-20T16:22:23.723Z,24.40
2019-04-20T16:23:28.361Z,56.70
2019-04-20T16:25:01.251Z,24.10
2019-04-20T16:26:02.029Z,56.70
2019-04-20T16:27:36.265Z,24.90
2019-04-20T16:28:32.023Z,56.60
2019-04-20T16:30:09.484Z,24.90
2019-04-20T16:31:01.638Z,56.60
2019-04-20T16:32:40.672Z,24.80
2019-04-20T16:33:30.641Z,56.60
2019-04-20T16:35:11.329Z,24.80
2019-04-20T16:36:00.611Z,56.60
2019-04-20T16:37:42.468Z,24.70
2019-04-20T16:38:30.654Z,56.60
2019-04-20T16:40:13.881Z,24.80
2019-04-20T16:41:00.044Z,56.50
2019-04-20T16:42:45.530Z,24.90
2019-04-20T16:43:35.121Z,56.50
2019-04-20T16:45:17.173Z,26.50
2019-04-20T16:46:01.265Z,56.50
2019-04-20T16:47:48.192Z,26.80
2019-04-20T16:48:30.475Z,56.50
2019-04-20T16:50:19.392Z,28.00
2019-04-20T16:51:00.572Z,56.40
2019-04-20T16:52:50.798Z,27.30
2019-04-20T16:53:30.864Z,56.40
2019-04-20T16:55:22.866Z,27.90
2019-04-20T16:56:01.156Z,56.30
2019-04-20T16:57:53.489Z,26.60
2019-04-20T16:58:31.430Z,56.40
2019-04-20T17:00:25.449Z,26.70
2019-04-20T17:01:01.231Z,56.30
2019-04-20T17:02:56.259Z,26.40
2019-04-20T17:03:42.036Z,56.40
2019-04-20T17:05:27.491Z,26.80
2019-04-20T17:06:02.365Z,56.30
2019-04-20T17:07:58.574Z,26.90
2019-04-20T17:08:33.171Z,56.10
2019-04-20T17:10:30.703Z,27.80
2019-04-20T17:11:03.583Z,55.60
2019-04-20T17:13:01.901Z,28.40
2019-04-20T17:13:40.482Z,54.70
2019-04-20T17:15:33.775Z,28.90
2019-04-20T17:16:04.110Z,54.10
2019-04-20T17:18:05.728Z,29.20
2019-04-20T17:18:33.971Z,53.80
2019-04-20T17:20:36.821Z,30.00
2019-04-20T17:21:07.321Z,53.40
2019-04-20T17:23:10.298Z,30.90
2019-04-20T17:23:33.727Z,52.80
2019-04-20T17:25:39.927Z,31.50
2019-04-20T17:26:04.260Z,52.80
2019-04-20T17:28:44.987Z,31.30
2019-04-20T17:28:58.073Z,52.80
2019-04-20T17:31:40.348Z,32.10
2019-04-20T17:31:45.164Z,52.90
2019-04-20T17:34:29.940Z,32.50
2019-04-20T17:34:36.399Z,53.00
2019-04-20T17:36:46.541Z,32.80
2019-04-20T17:36:48.494Z,53.00
2019-04-20T17:39:28.824Z,32.90
2019-04-20T17:39:30.195Z,53.20
2019-04-20T17:42:03.131Z,53.30
2019-04-20T17:42:07.395Z,35.20
2019-04-20T17:44:34.398Z,53.30
2019-04-20T17:44:36.112Z,35.40
2019-04-20T17:47:00.623Z,53.50
2019-04-20T17:47:03.910Z,34.90
2019-04-20T17:49:36.835Z,53.60
2019-04-20T17:49:39.035Z,35.00
2019-04-20T17:52:21.903Z,54.20
2019-04-20T17:52:24.061Z,35.40
2019-04-20T17:54:35.599Z,35.40
2019-04-20T17:54:40.840Z,53.80
2019-04-20T17:57:09.099Z,35.70
2019-04-20T17:57:11.146Z,53.90
2019-04-20T17:59:44.859Z,36.60
2019-04-20T17:59:50.694Z,54.70
2019-04-20T18:02:45.910Z,54.10
2019-04-20T18:02:45.982Z,36.40
2019-04-20T18:05:28.382Z,54.20
2019-04-20T18:05:46.596Z,36.80
2019-04-20T18:07:50.783Z,54.40
2019-04-20T18:08:16.512Z,36.70
2019-04-20T18:10:22.457Z,54.40
2019-04-20T18:10:42.871Z,37.50
2019-04-20T18:12:43.053Z,54.50
2019-04-20T18:13:09.366Z,36.30
2019-04-20T18:15:29.125Z,54.60
2019-04-20T18:15:48.737Z,36.80
2019-04-20T18:18:24.515Z,54.70
2019-04-20T18:18:39.845Z,37.30
2019-04-20T18:21:08.586Z,54.80
2019-04-20T18:21:24.497Z,37.10
2019-04-20T18:23:41.409Z,54.80
2019-04-20T18:23:56.266Z,36.90
2019-04-20T18:26:27.581Z,55.60
2019-04-20T18:26:48.215Z,37.00
2019-04-20T18:29:02.971Z,55.00
2019-04-20T18:29:23.555Z,37.30
2019-04-20T18:31:29.149Z,55.20
2019-04-20T18:31:59.757Z,37.20
2019-04-20T18:34:10.096Z,55.20
2019-04-20T18:34:40.372Z,37.20
2019-04-20T18:36:40.875Z,55.20
2019-04-20T18:37:15.144Z,37.70
2019-04-20T18:39:10.467Z,55.30
2019-04-20T18:39:54.368Z,37.50
2019-04-20T18:41:45.492Z,55.30
2019-04-20T18:42:21.318Z,37.10
2019-04-20T18:44:09.057Z,55.40
2019-04-20T18:45:09.146Z,38.00
2019-04-20T18:47:00.618Z,55.40
2019-04-20T18:47:42.249Z,37.90
2019-04-20T18:49:24.410Z,55.40
2019-04-20T18:50:04.437Z,37.50
2019-04-20T18:51:39.848Z,55.50
2019-04-20T18:52:29.445Z,37.70
2019-04-20T18:54:17.421Z,55.60
2019-04-20T18:54:59.471Z,38.30
2019-04-20T18:56:44.942Z,55.60
2019-04-20T18:57:33.204Z,38.80
2019-04-20T18:59:11.440Z,55.60
2019-04-20T19:00:07.819Z,38.60
2019-04-20T19:01:43.124Z,55.70
2019-04-20T19:02:44.575Z,38.50
2019-04-20T19:04:12.033Z,55.70
2019-04-20T19:05:13.680Z,38.40
2019-04-20T19:06:41.455Z,55.70
2019-04-20T19:07:57.139Z,38.70
2019-04-20T19:09:16.670Z,55.70
2019-04-20T19:10:27.435Z,38.70
2019-04-20T19:11:49.606Z,55.70
2019-04-20T19:13:01.550Z,39.10
2019-04-20T19:14:42.705Z,55.80
2019-04-20T19:15:57.768Z,39.00
2019-04-20T19:17:48.718Z,55.80
2019-04-20T19:18:45.516Z,39.20
2019-04-20T19:20:14.368Z,55.90
2019-04-20T19:21:03.806Z,39.30
2019-04-20T19:22:44.106Z,55.90
2019-04-20T19:23:36.567Z,39.80
2019-04-20T19:25:19.841Z,56.00
2019-04-20T19:26:11.917Z,40.20
2019-04-20T19:27:49.362Z,56.00
2019-04-20T19:28:48.346Z,39.70
2019-04-20T19:30:24.586Z,56.00
2019-04-20T19:31:28.942Z,40.00
2019-04-20T19:33:05.067Z,56.00
2019-04-20T19:34:06.234Z,40.10
2019-04-20T19:35:29.469Z,56.00
2019-04-20T19:36:31.993Z,41.00
2019-04-20T19:37:56.297Z,55.90
2019-04-20T19:39:10.936Z,40.50
2019-04-20T19:40:31.139Z,55.90
2019-04-20T19:41:38.981Z,40.30
2019-04-20T19:43:04.075Z,55.90
2019-04-20T19:44:15.249Z,40.70
2019-04-20T19:45:42.328Z,55.90
2019-04-20T19:46:53.778Z,40.60
2019-04-20T19:48:06.061Z,55.80
2019-04-20T19:49:21.795Z,40.50
2019-04-20T19:50:46.250Z,55.80
2019-04-20T19:52:16.029Z,40.40
2019-04-20T19:53:18.381Z,55.70
2019-04-20T19:54:38.907Z,40.80
2019-04-20T19:55:37.800Z,55.70
2019-04-20T19:57:08.119Z,40.80
2019-04-20T19:58:07.221Z,55.70
2019-04-20T19:59:32.900Z,40.70
2019-04-20T20:00:51.642Z,55.50
2019-04-20T20:01:55.827Z,40.90
2019-04-20T20:03:19.966Z,55.50
2019-04-20T20:04:33.051Z,41.90
2019-04-20T20:05:53.864Z,55.40
2019-04-20T20:07:05.528Z,41.20
2019-04-20T20:08:27.482Z,55.40
2019-04-20T20:09:39.572Z,41.90
2019-04-20T20:10:59.441Z,55.40
2019-04-20T20:12:15.644Z,42.00
2019-04-20T20:13:34.508Z,55.30
2019-04-20T20:14:47.527Z,43.00
2019-04-20T20:16:09.426Z,55.40
2019-04-20T20:17:39.936Z,42.70
2019-04-20T20:18:46.591Z,55.30
2019-04-20T20:20:22.960Z,42.10
2019-04-20T20:21:20.058Z,55.30
2019-04-20T20:22:37.180Z,42.30
2019-04-20T20:23:38.881Z,55.30
2019-04-20T20:25:05.528Z,42.90
2019-04-20T20:26:22.305Z,55.20
2019-04-20T20:27:48.933Z,43.30
2019-04-20T20:28:49.470Z,55.20
2019-04-20T20:30:23.040Z,42.50
2019-04-20T20:31:23.441Z,55.30
2019-04-20T20:33:05.869Z,47.20
2019-04-20T20:34:01.860Z,55.10
2019-04-20T20:35:29.765Z,44.40
2019-04-20T20:36:23.300Z,54.70
2019-04-20T20:38:10.855Z,44.30
2019-04-20T20:38:54.235Z,54.70
2019-04-20T20:40:43.837Z,44.50
2019-04-20T20:41:29.962Z,54.50
2019-04-20T20:43:21.735Z,45.00
2019-04-20T20:44:03.756Z,54.50
2019-04-20T20:46:01.356Z,44.60
2019-04-20T20:46:37.487Z,54.60
2019-04-20T20:48:34.843Z,45.00
2019-04-20T20:49:16.657Z,54.50
2019-04-20T20:51:12.090Z,45.00
2019-04-20T20:51:59.022Z,54.50
2019-04-20T20:53:38.715Z,45.20
2019-04-20T20:54:15.862Z,54.50
2019-04-20T20:56:15.014Z,45.30
2019-04-20T20:56:47.374Z,54.50
2019-04-20T20:58:48.466Z,45.10
2019-04-20T20:59:18.545Z,54.60
2019-04-20T21:01:20.129Z,45.60
2019-04-20T21:01:50.368Z,54.60
2019-04-20T21:03:50.980Z,46.50
2019-04-20T21:04:15.225Z,54.70
2019-04-20T21:06:20.719Z,45.80
2019-04-20T21:06:46.462Z,54.80
2019-04-20T21:08:56.056Z,46.00
2019-04-20T21:09:16.616Z,54.80
2019-04-20T21:11:30.570Z,47.20
2019-04-20T21:11:46.408Z,54.80
2019-04-20T21:13:59.222Z,48.00
2019-04-20T21:14:23.111Z,55.30
2019-04-20T21:16:33.378Z,47.80
2019-04-20T21:16:56.953Z,54.80
2019-04-20T21:19:21.414Z,47.60
2019-04-20T21:19:34.308Z,54.90
2019-04-20T21:21:49.580Z,47.90
2019-04-20T21:22:01.025Z,54.90
2019-04-20T21:24:27.287Z,55.00
2019-04-20T21:24:33.872Z,48.10
2019-04-20T21:27:00.663Z,55.10
2019-04-20T21:27:10.198Z,48.20
2019-04-20T21:29:35.589Z,55.10
2019-04-20T21:29:46.550Z,49.00
2019-04-20T21:32:05.155Z,55.10
2019-04-20T21:32:16.556Z,49.40
2019-04-20T21:34:31.185Z,55.10
2019-04-20T21:34:51.797Z,50.10
2019-04-20T21:37:07.292Z,55.10
2019-04-20T21:37:23.256Z,50.50
2019-04-20T21:39:42.219Z,55.20
2019-04-20T21:39:58.995Z,51.40
2019-04-20T21:42:10.341Z,55.20
2019-04-20T21:42:34.501Z,50.50
2019-04-20T21:44:40.344Z,55.30
2019-04-20T21:45:10.261Z,50.80
2019-04-20T21:47:07.081Z,55.30
2019-04-20T21:47:40.821Z,51.40
2019-04-20T21:49:50.890Z,55.40
2019-04-20T21:50:27.146Z,51.40
2019-04-20T21:52:20.430Z,55.40
2019-04-20T21:52:50.588Z,51.40
2019-04-20T21:54:40.097Z,55.40
2019-04-20T21:55:19.821Z,51.90
2019-04-20T21:57:11.543Z,55.40
2019-04-20T21:57:56.742Z,52.20
2019-04-20T21:59:44.967Z,55.50
2019-04-20T22:00:47.635Z,52.40
2019-04-20T22:02:19.560Z,55.50
2019-04-20T22:03:18.752Z,53.20
2019-04-20T22:04:43.054Z,55.40
2019-04-20T22:05:52.560Z,52.30
2019-04-20T22:07:12.533Z,55.90
2019-04-20T22:08:24.221Z,53.00
2019-04-20T22:09:47.667Z,55.20
2019-04-20T22:10:55.477Z,53.40
2019-04-20T22:12:13.975Z,55.20
2019-04-20T22:13:32.409Z,53.30
2019-04-20T22:14:43.910Z,55.30
2019-04-20T22:16:05.260Z,53.90
2019-04-20T22:17:20.624Z,55.40
2019-04-20T22:18:46.360Z,54.30
2019-04-20T22:19:58.633Z,55.40
2019-04-20T22:21:20.834Z,54.90
2019-04-20T22:22:36.711Z,55.40
2019-04-20T22:24:01.809Z,54.80
2019-04-20T22:25:03.906Z,55.40
2019-04-20T22:26:29.648Z,54.90
2019-04-20T22:27:24.554Z,55.40
2019-04-20T22:28:54.060Z,54.50
2019-04-20T22:29:50.413Z,55.40
2019-04-20T22:31:26.369Z,54.30
2019-04-20T22:32:21.793Z,55.50
2019-04-20T22:34:00.727Z,55.00
2019-04-20T22:34:57.175Z,55.30
2019-04-20T22:36:43.070Z,55.80
2019-04-20T22:37:28.333Z,55.20
2019-04-20T22:39:15.664Z,55.80
2019-04-20T22:39:56.277Z,55.20
2019-04-20T22:42:09.706Z,55.50
2019-04-20T22:42:26.112Z,55.20
2019-04-20T22:44:41.126Z,56.50
2019-04-20T22:45:01.916Z,55.10
2019-04-20T22:47:20.791Z,56.40
2019-04-20T22:47:30.320Z,55.10
2019-04-20T22:50:03.393Z,57.30
2019-04-20T22:50:15.236Z,55.00
2019-04-20T22:52:34.898Z,57.20
2019-04-20T22:52:42.687Z,55.00
2019-04-20T22:55:16.101Z,58.10
2019-04-20T22:55:19.900Z,54.90
2019-04-20T22:57:43.304Z,59.40
2019-04-20T22:57:47.006Z,54.90
2019-04-20T23:00:08.356Z,54.80
2019-04-20T23:00:08.405Z,59.30
2019-04-20T23:02:33.258Z,54.80